sensor_id;sensor_type;location;lat;lon;timestamp;temperature;humidity
20066;DHT22;10193;48.884;9.182;2024-01-06T00:01:10;8.40;70.80
20066;DHT22;10193;48.884;9.182;2024-01-06T00:03:39;8.40;70.90
20066;DHT22;10193;48.884;9.182;2024-01-06T00:06:06;8.40;70.80
20066;DHT22;10193;48.884;9.182;2024-01-06T00:08:33;8.40;70.90
20066;DHT22;10193;48.884;9.182;2024-01-06T00:10:59;8.40;70.80
20066;DHT22;10193;48.884;9.182;2024-01-06T00:13:28;8.40;70.90
20066;DHT22;10193;48.884;9.182;2024-01-06T00:15:54;8.30;70.70
20066;DHT22;10193;48.884;9.182;2024-01-06T00:18:21;8.30;70.80
20066;DHT22;10193;48.884;9.182;2024-01-06T00:20:49;8.30;70.80
20066;DHT22;10193;48.884;9.182;2024-01-06T00:23:16;8.30;70.70
20066;DHT22;10193;48.884;9.182;2024-01-06T00:25:42;8.30;70.70
20066;DHT22;10193;48.884;9.182;2024-01-06T00:28:09;8.30;70.80
20066;DHT22;10193;48.884;9.182;2024-01-06T00:30:36;8.30;70.80
20066;DHT22;10193;48.884;9.182;2024-01-06T00:33:03;8.20;70.60
20066;DHT22;10193;48.884;9.182;2024-01-06T00:35:30;8.20;70.70
20066;DHT22;10193;48.884;9.182;2024-01-06T00:37:58;8.20;70.70
20066;DHT22;10193;48.884;9.182;2024-01-06T00:40:25;8.20;70.90
20066;DHT22;10193;48.884;9.182;2024-01-06T00:42:52;8.10;70.90
20066;DHT22;10193;48.884;9.182;2024-01-06T00:45:19;8.20;71.00
20066;DHT22;10193;48.884;9.182;2024-01-06T00:47:46;8.10;70.90
20066;DHT22;10193;48.884;9.182;2024-01-06T00:50:13;8.10;70.90
20066;DHT22;10193;48.884;9.182;2024-01-06T00:52:39;8.10;70.90
20066;DHT22;10193;48.884;9.182;2024-01-06T00:55:08;8.10;70.90
20066;DHT22;10193;48.884;9.182;2024-01-06T00:57:35;8.10;70.90
20066;DHT22;10193;48.884;9.182;2024-01-06T01:00:02;8.10;70.90
20066;DHT22;10193;48.884;9.182;2024-01-06T01:02:29;8.00;70.90
20066;DHT22;10193;48.884;9.182;2024-01-06T01:04:55;8.00;70.80
20066;DHT22;10193;48.884;9.182;2024-01-06T01:07:23;8.00;70.90
20066;DHT22;10193;48.884;9.182;2024-01-06T01:09:50;7.90;71.60
20066;DHT22;10193;48.884;9.182;2024-01-06T01:12:18;8.00;71.00
20066;DHT22;10193;48.884;9.182;2024-01-06T01:14:44;7.90;70.90
20066;DHT22;10193;48.884;9.182;2024-01-06T01:17:11;7.90;70.90
20066;DHT22;10193;48.884;9.182;2024-01-06T01:19:38;7.90;70.90
20066;DHT22;10193;48.884;9.182;2024-01-06T01:22:05;7.90;70.90
20066;DHT22;10193;48.884;9.182;2024-01-06T01:24:31;7.80;70.80
20066;DHT22;10193;48.884;9.182;2024-01-06T01:26:58;7.80;70.90
20066;DHT22;10193;48.884;9.182;2024-01-06T01:29:26;7.80;70.90
20066;DHT22;10193;48.884;9.182;2024-01-06T01:31:52;7.80;70.90
20066;DHT22;10193;48.884;9.182;2024-01-06T01:34:19;7.80;71.00
20066;DHT22;10193;48.884;9.182;2024-01-06T01:36:46;7.80;71.00
20066;DHT22;10193;48.884;9.182;2024-01-06T01:39:12;7.80;71.10
20066;DHT22;10193;48.884;9.182;2024-01-06T01:41:40;7.80;71.20
20066;DHT22;10193;48.884;9.182;2024-01-06T01:44:08;7.80;71.20
20066;DHT22;10193;48.884;9.182;2024-01-06T01:46:36;7.80;71.20
20066;DHT22;10193;48.884;9.182;2024-01-06T01:49:03;7.80;71.30
20066;DHT22;10193;48.884;9.182;2024-01-06T01:51:32;7.80;71.30
20066;DHT22;10193;48.884;9.182;2024-01-06T01:54:01;7.90;71.30
20066;DHT22;10193;48.884;9.182;2024-01-06T01:56:29;7.90;71.40
20066;DHT22;10193;48.884;9.182;2024-01-06T01:59:00;7.90;71.30
20066;DHT22;10193;48.884;9.182;2024-01-06T02:01:27;7.90;71.30
20066;DHT22;10193;48.884;9.182;2024-01-06T02:03:55;7.90;71.20
20066;DHT22;10193;48.884;9.182;2024-01-06T02:06:21;7.90;71.20
20066;DHT22;10193;48.884;9.182;2024-01-06T02:08:48;7.90;71.10
20066;DHT22;10193;48.884;9.182;2024-01-06T02:11:15;7.90;71.10
20066;DHT22;10193;48.884;9.182;2024-01-06T02:13:41;8.00;71.20
20066;DHT22;10193;48.884;9.182;2024-01-06T02:16:08;7.90;71.00
20066;DHT22;10193;48.884;9.182;2024-01-06T02:18:35;8.00;71.00
20066;DHT22;10193;48.884;9.182;2024-01-06T02:21:03;7.90;70.90
20066;DHT22;10193;48.884;9.182;2024-01-06T02:23:33;8.00;71.00
20066;DHT22;10193;48.884;9.182;2024-01-06T02:26:00;8.00;71.00
20066;DHT22;10193;48.884;9.182;2024-01-06T02:28:27;7.90;71.00
20066;DHT22;10193;48.884;9.182;2024-01-06T02:30:54;7.90;71.00
20066;DHT22;10193;48.884;9.182;2024-01-06T02:33:20;7.90;70.90
20066;DHT22;10193;48.884;9.182;2024-01-06T02:35:49;7.90;71.00
20066;DHT22;10193;48.884;9.182;2024-01-06T02:38:16;7.90;71.00
20066;DHT22;10193;48.884;9.182;2024-01-06T02:40:44;7.90;71.00
20066;DHT22;10193;48.884;9.182;2024-01-06T02:43:10;7.90;70.90
20066;DHT22;10193;48.884;9.182;2024-01-06T02:45:37;8.00;71.80
20066;DHT22;10193;48.884;9.182;2024-01-06T02:48:04;7.90;70.90
20066;DHT22;10193;48.884;9.182;2024-01-06T02:50:31;7.90;71.60
20066;DHT22;10193;48.884;9.182;2024-01-06T02:52:57;7.90;70.80
20066;DHT22;10193;48.884;9.182;2024-01-06T02:55:24;7.90;70.70
20066;DHT22;10193;48.884;9.182;2024-01-06T02:57:52;7.80;70.70
20066;DHT22;10193;48.884;9.182;2024-01-06T03:00:19;7.90;70.70
20066;DHT22;10193;48.884;9.182;2024-01-06T03:02:46;7.80;70.60
20066;DHT22;10193;48.884;9.182;2024-01-06T03:05:12;7.80;70.40
20066;DHT22;10193;48.884;9.182;2024-01-06T03:07:39;7.80;70.60
20066;DHT22;10193;48.884;9.182;2024-01-06T03:10:06;7.80;70.60
20066;DHT22;10193;48.884;9.182;2024-01-06T03:12:33;7.80;70.50
20066;DHT22;10193;48.884;9.182;2024-01-06T03:15:01;7.80;70.60
20066;DHT22;10193;48.884;9.182;2024-01-06T03:17:27;7.80;70.50
20066;DHT22;10193;48.884;9.182;2024-01-06T03:19:54;7.80;70.60
20066;DHT22;10193;48.884;9.182;2024-01-06T03:22:21;7.80;70.50
20066;DHT22;10193;48.884;9.182;2024-01-06T03:24:48;7.80;70.40
20066;DHT22;10193;48.884;9.182;2024-01-06T03:27:14;7.80;70.50
20066;DHT22;10193;48.884;9.182;2024-01-06T03:29:41;7.80;70.50
20066;DHT22;10193;48.884;9.182;2024-01-06T03:32:09;7.80;70.30
20066;DHT22;10193;48.884;9.182;2024-01-06T03:34:36;7.70;70.30
20066;DHT22;10193;48.884;9.182;2024-01-06T03:37:02;7.70;70.40
20066;DHT22;10193;48.884;9.182;2024-01-06T03:39:30;7.70;70.40
20066;DHT22;10193;48.884;9.182;2024-01-06T03:41:56;7.70;70.40
20066;DHT22;10193;48.884;9.182;2024-01-06T03:44:23;7.70;70.40
20066;DHT22;10193;48.884;9.182;2024-01-06T03:46:50;7.80;70.60
20066;DHT22;10193;48.884;9.182;2024-01-06T03:49:18;7.80;70.50
20066;DHT22;10193;48.884;9.182;2024-01-06T03:51:46;7.70;70.40
20066;DHT22;10193;48.884;9.182;2024-01-06T03:54:13;7.70;70.40
20066;DHT22;10193;48.884;9.182;2024-01-06T03:56:39;7.80;70.40
20066;DHT22;10193;48.884;9.182;2024-01-06T03:59:06;7.80;70.40
20066;DHT22;10193;48.884;9.182;2024-01-06T04:01:33;7.80;70.40
20066;DHT22;10193;48.884;9.182;2024-01-06T04:04:02;7.80;70.40
20066;DHT22;10193;48.884;9.182;2024-01-06T04:06:31;7.80;70.30
20066;DHT22;10193;48.884;9.182;2024-01-06T04:08:58;7.80;70.30
20066;DHT22;10193;48.884;9.182;2024-01-06T04:11:24;7.80;70.30
20066;DHT22;10193;48.884;9.182;2024-01-06T04:13:50;7.80;70.30
20066;DHT22;10193;48.884;9.182;2024-01-06T04:16:17;7.80;70.30
20066;DHT22;10193;48.884;9.182;2024-01-06T04:18:43;7.80;70.30
20066;DHT22;10193;48.884;9.182;2024-01-06T04:21:10;7.80;70.20
20066;DHT22;10193;48.884;9.182;2024-01-06T04:23:38;7.80;70.20
20066;DHT22;10193;48.884;9.182;2024-01-06T04:26:05;7.80;70.20
20066;DHT22;10193;48.884;9.182;2024-01-06T04:28:32;7.80;70.20
20066;DHT22;10193;48.884;9.182;2024-01-06T04:30:59;7.80;70.20
20066;DHT22;10193;48.884;9.182;2024-01-06T04:33:25;7.80;70.10
20066;DHT22;10193;48.884;9.182;2024-01-06T04:35:52;7.80;70.10
20066;DHT22;10193;48.884;9.182;2024-01-06T04:38:19;7.80;70.10
20066;DHT22;10193;48.884;9.182;2024-01-06T04:40:47;7.80;70.20
20066;DHT22;10193;48.884;9.182;2024-01-06T04:43:13;7.70;70.10
20066;DHT22;10193;48.884;9.182;2024-01-06T04:45:40;7.70;70.00
20066;DHT22;10193;48.884;9.182;2024-01-06T04:48:07;7.70;70.10
20066;DHT22;10193;48.884;9.182;2024-01-06T04:50:34;7.70;70.00
20066;DHT22;10193;48.884;9.182;2024-01-06T04:53:00;7.70;70.00
20066;DHT22;10193;48.884;9.182;2024-01-06T04:55:27;7.70;70.10
20066;DHT22;10193;48.884;9.182;2024-01-06T04:57:55;7.70;70.10
20066;DHT22;10193;48.884;9.182;2024-01-06T05:00:22;7.60;69.80
20066;DHT22;10193;48.884;9.182;2024-01-06T05:02:49;7.60;70.00
20066;DHT22;10193;48.884;9.182;2024-01-06T05:05:16;7.60;70.00
20066;DHT22;10193;48.884;9.182;2024-01-06T05:07:42;7.60;70.00
20066;DHT22;10193;48.884;9.182;2024-01-06T05:10:09;7.60;69.90
20066;DHT22;10193;48.884;9.182;2024-01-06T05:12:36;7.60;70.00
20066;DHT22;10193;48.884;9.182;2024-01-06T05:15:04;7.50;69.80
20066;DHT22;10193;48.884;9.182;2024-01-06T05:17:31;7.50;70.00
20066;DHT22;10193;48.884;9.182;2024-01-06T05:19:58;7.50;70.00
20066;DHT22;10193;48.884;9.182;2024-01-06T05:22:25;7.50;70.10
20066;DHT22;10193;48.884;9.182;2024-01-06T05:24:52;7.50;70.10
20066;DHT22;10193;48.884;9.182;2024-01-06T05:27:19;7.50;70.10
20066;DHT22;10193;48.884;9.182;2024-01-06T05:29:46;7.50;70.10
20066;DHT22;10193;48.884;9.182;2024-01-06T05:32:16;7.50;70.20
20066;DHT22;10193;48.884;9.182;2024-01-06T05:34:42;7.40;70.00
20066;DHT22;10193;48.884;9.182;2024-01-06T05:37:09;7.40;70.10
20066;DHT22;10193;48.884;9.182;2024-01-06T05:39:37;7.40;70.10
20066;DHT22;10193;48.884;9.182;2024-01-06T05:42:04;7.40;70.20
20066;DHT22;10193;48.884;9.182;2024-01-06T05:44:31;7.30;70.10
20066;DHT22;10193;48.884;9.182;2024-01-06T05:47:01;7.40;70.30
20066;DHT22;10193;48.884;9.182;2024-01-06T05:49:29;7.40;70.30
20066;DHT22;10193;48.884;9.182;2024-01-06T05:51:55;7.30;70.20
20066;DHT22;10193;48.884;9.182;2024-01-06T05:54:22;7.30;70.20
20066;DHT22;10193;48.884;9.182;2024-01-06T05:56:49;7.30;70.10
20066;DHT22;10193;48.884;9.182;2024-01-06T05:59:15;7.30;70.20
20066;DHT22;10193;48.884;9.182;2024-01-06T06:01:42;7.30;70.30
20066;DHT22;10193;48.884;9.182;2024-01-06T06:04:10;7.30;70.40
20066;DHT22;10193;48.884;9.182;2024-01-06T06:06:38;7.30;70.40
20066;DHT22;10193;48.884;9.182;2024-01-06T06:09:05;7.30;70.40
20066;DHT22;10193;48.884;9.182;2024-01-06T06:11:32;7.30;70.30
20066;DHT22;10193;48.884;9.182;2024-01-06T06:13:59;7.30;70.40
20066;DHT22;10193;48.884;9.182;2024-01-06T06:16:28;7.30;70.40
20066;DHT22;10193;48.884;9.182;2024-01-06T06:18:55;7.30;70.50
20066;DHT22;10193;48.884;9.182;2024-01-06T06:21:21;7.20;70.40
20066;DHT22;10193;48.884;9.182;2024-01-06T06:23:49;7.20;70.40
20066;DHT22;10193;48.884;9.182;2024-01-06T06:26:16;7.20;70.50
20066;DHT22;10193;48.884;9.182;2024-01-06T06:28:43;7.20;70.60
20066;DHT22;10193;48.884;9.182;2024-01-06T06:31:10;7.20;70.70
20066;DHT22;10193;48.884;9.182;2024-01-06T06:33:36;7.20;70.70
20066;DHT22;10193;48.884;9.182;2024-01-06T06:36:05;7.20;70.80
20066;DHT22;10193;48.884;9.182;2024-01-06T06:38:31;7.20;70.80
20066;DHT22;10193;48.884;9.182;2024-01-06T06:40:59;7.20;70.90
20066;DHT22;10193;48.884;9.182;2024-01-06T06:43:26;7.20;71.70
20066;DHT22;10193;48.884;9.182;2024-01-06T06:45:53;7.20;70.90
20066;DHT22;10193;48.884;9.182;2024-01-06T06:48:20;7.20;71.00
20066;DHT22;10193;48.884;9.182;2024-01-06T06:50:47;7.20;71.00
20066;DHT22;10193;48.884;9.182;2024-01-06T06:53:14;7.20;71.10
20066;DHT22;10193;48.884;9.182;2024-01-06T06:55:40;7.20;71.10
20066;DHT22;10193;48.884;9.182;2024-01-06T06:58:08;7.20;71.10
20066;DHT22;10193;48.884;9.182;2024-01-06T07:00:35;7.30;71.10
20066;DHT22;10193;48.884;9.182;2024-01-06T07:03:02;7.30;71.20
20066;DHT22;10193;48.884;9.182;2024-01-06T07:05:29;7.30;71.20
20066;DHT22;10193;48.884;9.182;2024-01-06T07:07:56;7.30;71.30
20066;DHT22;10193;48.884;9.182;2024-01-06T07:10:22;7.30;71.30
20066;DHT22;10193;48.884;9.182;2024-01-06T07:12:49;7.30;71.30
20066;DHT22;10193;48.884;9.182;2024-01-06T07:15:17;7.30;71.40
20066;DHT22;10193;48.884;9.182;2024-01-06T07:17:44;7.30;71.50
20066;DHT22;10193;48.884;9.182;2024-01-06T07:20:10;7.30;71.50
20066;DHT22;10193;48.884;9.182;2024-01-06T07:22:37;7.30;71.40
20066;DHT22;10193;48.884;9.182;2024-01-06T07:25:04;7.40;71.50
20066;DHT22;10193;48.884;9.182;2024-01-06T07:27:32;7.40;71.50
20066;DHT22;10193;48.884;9.182;2024-01-06T07:29:59;7.40;71.50
20066;DHT22;10193;48.884;9.182;2024-01-06T07:32:27;7.40;71.50
20066;DHT22;10193;48.884;9.182;2024-01-06T07:34:54;7.50;71.60
20066;DHT22;10193;48.884;9.182;2024-01-06T07:37:20;7.50;71.60
20066;DHT22;10193;48.884;9.182;2024-01-06T07:39:47;7.50;71.60
20066;DHT22;10193;48.884;9.182;2024-01-06T07:42:14;7.50;71.60
20066;DHT22;10193;48.884;9.182;2024-01-06T07:44:41;7.60;71.60
20066;DHT22;10193;48.884;9.182;2024-01-06T07:47:07;7.60;71.60
20066;DHT22;10193;48.884;9.182;2024-01-06T07:49:35;7.60;71.50
20066;DHT22;10193;48.884;9.182;2024-01-06T07:52:02;7.60;71.50
20066;DHT22;10193;48.884;9.182;2024-01-06T07:54:30;7.60;71.60
20066;DHT22;10193;48.884;9.182;2024-01-06T07:56:57;7.60;71.50
20066;DHT22;10193;48.884;9.182;2024-01-06T07:59:24;7.70;71.60
20066;DHT22;10193;48.884;9.182;2024-01-06T08:01:51;7.70;71.60
20066;DHT22;10193;48.884;9.182;2024-01-06T08:04:18;7.70;71.50
20066;DHT22;10193;48.884;9.182;2024-01-06T08:06:46;7.70;71.40
20066;DHT22;10193;48.884;9.182;2024-01-06T08:09:12;7.70;71.50
20066;DHT22;10193;48.884;9.182;2024-01-06T08:11:39;7.70;71.50
20066;DHT22;10193;48.884;9.182;2024-01-06T08:14:08;7.70;71.50
20066;DHT22;10193;48.884;9.182;2024-01-06T08:16:36;7.80;71.50
20066;DHT22;10193;48.884;9.182;2024-01-06T08:19:03;7.80;71.40
20066;DHT22;10193;48.884;9.182;2024-01-06T08:21:29;7.80;71.50
20066;DHT22;10193;48.884;9.182;2024-01-06T08:23:57;7.80;71.50
20066;DHT22;10193;48.884;9.182;2024-01-06T08:26:24;7.80;71.40
20066;DHT22;10193;48.884;9.182;2024-01-06T08:28:50;7.90;71.50
20066;DHT22;10193;48.884;9.182;2024-01-06T08:31:17;7.90;71.30
20066;DHT22;10193;48.884;9.182;2024-01-06T08:33:44;7.90;71.30
20066;DHT22;10193;48.884;9.182;2024-01-06T08:36:11;8.00;71.30
20066;DHT22;10193;48.884;9.182;2024-01-06T08:38:38;7.90;71.20
20066;DHT22;10193;48.884;9.182;2024-01-06T08:41:06;8.00;71.20
20066;DHT22;10193;48.884;9.182;2024-01-06T08:43:32;8.00;71.20
20066;DHT22;10193;48.884;9.182;2024-01-06T08:45:59;8.00;71.20
20066;DHT22;10193;48.884;9.182;2024-01-06T08:48:26;8.00;71.10
20066;DHT22;10193;48.884;9.182;2024-01-06T08:50:53;8.00;71.10
20066;DHT22;10193;48.884;9.182;2024-01-06T08:53:19;8.00;71.00
20066;DHT22;10193;48.884;9.182;2024-01-06T08:55:46;8.10;71.10
20066;DHT22;10193;48.884;9.182;2024-01-06T08:58:14;8.10;71.00
20066;DHT22;10193;48.884;9.182;2024-01-06T09:00:40;8.10;71.00
20066;DHT22;10193;48.884;9.182;2024-01-06T09:03:07;8.10;71.00
20066;DHT22;10193;48.884;9.182;2024-01-06T09:05:35;8.10;71.00
20066;DHT22;10193;48.884;9.182;2024-01-06T09:08:01;8.10;71.10
20066;DHT22;10193;48.884;9.182;2024-01-06T09:10:28;8.20;71.30
20066;DHT22;10193;48.884;9.182;2024-01-06T09:12:55;8.20;71.20
20066;DHT22;10193;48.884;9.182;2024-01-06T09:15:23;8.20;71.30
20066;DHT22;10193;48.884;9.182;2024-01-06T09:17:50;8.20;71.40
20066;DHT22;10193;48.884;9.182;2024-01-06T09:20:17;8.30;71.60
20066;DHT22;10193;48.884;9.182;2024-01-06T09:22:48;8.30;71.80
20066;DHT22;10193;48.884;9.182;2024-01-06T09:25:15;8.40;71.90
20066;DHT22;10193;48.884;9.182;2024-01-06T09:27:41;8.40;71.80
20066;DHT22;10193;48.884;9.182;2024-01-06T09:30:09;8.50;71.60
20066;DHT22;10193;48.884;9.182;2024-01-06T09:32:37;8.50;71.30
20066;DHT22;10193;48.884;9.182;2024-01-06T09:35:04;8.50;71.10
20066;DHT22;10193;48.884;9.182;2024-01-06T09:37:31;8.50;70.90
20066;DHT22;10193;48.884;9.182;2024-01-06T09:39:58;8.50;70.70
20066;DHT22;10193;48.884;9.182;2024-01-06T09:42:25;8.50;70.70
20066;DHT22;10193;48.884;9.182;2024-01-06T09:44:52;8.60;70.80
20066;DHT22;10193;48.884;9.182;2024-01-06T09:47:19;8.50;70.70
20066;DHT22;10193;48.884;9.182;2024-01-06T09:49:50;8.50;70.80
20066;DHT22;10193;48.884;9.182;2024-01-06T09:52:20;8.50;70.90
20066;DHT22;10193;48.884;9.182;2024-01-06T09:54:51;8.50;70.80
20066;DHT22;10193;48.884;9.182;2024-01-06T09:57:18;8.50;70.90
20066;DHT22;10193;48.884;9.182;2024-01-06T09:59:46;8.50;71.00
20066;DHT22;10193;48.884;9.182;2024-01-06T10:02:15;8.50;71.10
20066;DHT22;10193;48.884;9.182;2024-01-06T10:04:41;8.40;71.00
20066;DHT22;10193;48.884;9.182;2024-01-06T10:07:10;8.50;71.20
20066;DHT22;10193;48.884;9.182;2024-01-06T10:09:38;8.50;71.20
20066;DHT22;10193;48.884;9.182;2024-01-06T10:12:07;8.50;71.30
20066;DHT22;10193;48.884;9.182;2024-01-06T10:14:33;8.50;71.30
20066;DHT22;10193;48.884;9.182;2024-01-06T10:17:00;8.50;71.30
20066;DHT22;10193;48.884;9.182;2024-01-06T10:19:27;8.50;71.20
20066;DHT22;10193;48.884;9.182;2024-01-06T10:21:54;8.50;71.10
20066;DHT22;10193;48.884;9.182;2024-01-06T10:24:23;8.50;71.00
20066;DHT22;10193;48.884;9.182;2024-01-06T10:26:49;8.50;71.00
20066;DHT22;10193;48.884;9.182;2024-01-06T10:29:16;8.50;71.00
20066;DHT22;10193;48.884;9.182;2024-01-06T10:31:43;8.50;71.10
20066;DHT22;10193;48.884;9.182;2024-01-06T10:34:09;8.50;71.30
20066;DHT22;10193;48.884;9.182;2024-01-06T10:36:36;8.50;71.50
20066;DHT22;10193;48.884;9.182;2024-01-06T10:39:03;8.50;71.50
20066;DHT22;10193;48.884;9.182;2024-01-06T10:41:31;8.50;71.50
20066;DHT22;10193;48.884;9.182;2024-01-06T10:44:00;8.50;71.40
20066;DHT22;10193;48.884;9.182;2024-01-06T10:46:28;8.50;71.40
20066;DHT22;10193;48.884;9.182;2024-01-06T10:48:57;8.50;71.40
20066;DHT22;10193;48.884;9.182;2024-01-06T10:51:25;8.50;71.50
20066;DHT22;10193;48.884;9.182;2024-01-06T10:53:53;8.50;71.50
20066;DHT22;10193;48.884;9.182;2024-01-06T10:56:21;8.50;71.50
20066;DHT22;10193;48.884;9.182;2024-01-06T10:58:50;8.50;71.40
20066;DHT22;10193;48.884;9.182;2024-01-06T11:01:21;8.50;71.30
20066;DHT22;10193;48.884;9.182;2024-01-06T11:03:49;8.50;71.30
20066;DHT22;10193;48.884;9.182;2024-01-06T11:06:17;8.40;71.10
20066;DHT22;10193;48.884;9.182;2024-01-06T11:08:49;8.40;71.20
20066;DHT22;10193;48.884;9.182;2024-01-06T11:11:18;8.40;71.30
20066;DHT22;10193;48.884;9.182;2024-01-06T11:13:45;8.40;71.40
20066;DHT22;10193;48.884;9.182;2024-01-06T11:16:33;8.40;71.40
20066;DHT22;10193;48.884;9.182;2024-01-06T11:19:00;8.30;71.50
20066;DHT22;10193;48.884;9.182;2024-01-06T11:21:27;8.40;71.50
20066;DHT22;10193;48.884;9.182;2024-01-06T11:24:18;8.30;71.50
20066;DHT22;10193;48.884;9.182;2024-01-06T11:26:50;8.30;71.60
20066;DHT22;10193;48.884;9.182;2024-01-06T11:29:17;8.40;71.80
20066;DHT22;10193;48.884;9.182;2024-01-06T11:32:19;8.30;71.80
20066;DHT22;10193;48.884;9.182;2024-01-06T11:34:48;8.30;71.90
20066;DHT22;10193;48.884;9.182;2024-01-06T11:37:17;8.30;71.60
20066;DHT22;10193;48.884;9.182;2024-01-06T11:39:44;8.30;71.70
20066;DHT22;10193;48.884;9.182;2024-01-06T11:42:12;8.40;71.80
20066;DHT22;10193;48.884;9.182;2024-01-06T11:44:42;8.30;71.80
20066;DHT22;10193;48.884;9.182;2024-01-06T11:47:11;8.40;72.00
20066;DHT22;10193;48.884;9.182;2024-01-06T11:49:38;8.40;72.10
20066;DHT22;10193;48.884;9.182;2024-01-06T11:52:05;8.40;72.10
20066;DHT22;10193;48.884;9.182;2024-01-06T11:54:32;8.40;72.30
20066;DHT22;10193;48.884;9.182;2024-01-06T11:56:59;8.40;72.60
20066;DHT22;10193;48.884;9.182;2024-01-06T11:59:25;8.50;72.80
20066;DHT22;10193;48.884;9.182;2024-01-06T12:01:52;8.60;73.00
20066;DHT22;10193;48.884;9.182;2024-01-06T12:04:20;8.60;72.90
20066;DHT22;10193;48.884;9.182;2024-01-06T12:06:50;8.60;72.60
20066;DHT22;10193;48.884;9.182;2024-01-06T12:09:17;8.70;72.50
20066;DHT22;10193;48.884;9.182;2024-01-06T12:11:45;8.70;72.40
20066;DHT22;10193;48.884;9.182;2024-01-06T12:14:12;8.70;72.20
20066;DHT22;10193;48.884;9.182;2024-01-06T12:16:39;8.70;71.90
20066;DHT22;10193;48.884;9.182;2024-01-06T12:19:05;8.70;71.80
20066;DHT22;10193;48.884;9.182;2024-01-06T12:21:33;8.70;71.70
20066;DHT22;10193;48.884;9.182;2024-01-06T12:24:14;8.70;71.70
20066;DHT22;10193;48.884;9.182;2024-01-06T12:26:42;8.60;71.70
20066;DHT22;10193;48.884;9.182;2024-01-06T12:29:09;8.60;71.70
20066;DHT22;10193;48.884;9.182;2024-01-06T12:31:37;8.60;71.70
20066;DHT22;10193;48.884;9.182;2024-01-06T12:34:04;8.70;71.90
20066;DHT22;10193;48.884;9.182;2024-01-06T12:36:35;8.60;71.80
20066;DHT22;10193;48.884;9.182;2024-01-06T12:39:03;8.60;71.90
20066;DHT22;10193;48.884;9.182;2024-01-06T12:41:30;8.60;71.80
20066;DHT22;10193;48.884;9.182;2024-01-06T12:43:58;8.60;71.70
20066;DHT22;10193;48.884;9.182;2024-01-06T12:46:25;8.60;71.80
20066;DHT22;10193;48.884;9.182;2024-01-06T12:48:52;8.60;71.70
20066;DHT22;10193;48.884;9.182;2024-01-06T12:51:18;8.60;71.70
20066;DHT22;10193;48.884;9.182;2024-01-06T12:53:46;8.50;71.50
20066;DHT22;10193;48.884;9.182;2024-01-06T12:56:13;8.50;71.50
20066;DHT22;10193;48.884;9.182;2024-01-06T12:58:40;8.50;71.30
20066;DHT22;10193;48.884;9.182;2024-01-06T13:01:06;8.50;71.40
20066;DHT22;10193;48.884;9.182;2024-01-06T13:03:33;8.40;71.30
20066;DHT22;10193;48.884;9.182;2024-01-06T13:06:00;8.40;71.40
20066;DHT22;10193;48.884;9.182;2024-01-06T13:08:27;8.40;71.40
20066;DHT22;10193;48.884;9.182;2024-01-06T13:10:55;8.30;71.40
20066;DHT22;10193;48.884;9.182;2024-01-06T13:13:22;8.30;71.50
20066;DHT22;10193;48.884;9.182;2024-01-06T13:15:49;8.30;71.60
20066;DHT22;10193;48.884;9.182;2024-01-06T13:18:16;8.20;71.70
20066;DHT22;10193;48.884;9.182;2024-01-06T13:20:43;8.20;71.80
20066;DHT22;10193;48.884;9.182;2024-01-06T13:23:10;8.20;71.70
20066;DHT22;10193;48.884;9.182;2024-01-06T13:25:37;8.20;71.90
20066;DHT22;10193;48.884;9.182;2024-01-06T13:28:07;8.20;72.00
20066;DHT22;10193;48.884;9.182;2024-01-06T13:30:34;8.20;72.00
20066;DHT22;10193;48.884;9.182;2024-01-06T13:33:01;8.20;72.10
20066;DHT22;10193;48.884;9.182;2024-01-06T13:35:27;8.20;72.10
20066;DHT22;10193;48.884;9.182;2024-01-06T13:37:55;8.20;72.10
20066;DHT22;10193;48.884;9.182;2024-01-06T13:40:22;8.20;72.40
20066;DHT22;10193;48.884;9.182;2024-01-06T13:42:50;8.20;72.40
20066;DHT22;10193;48.884;9.182;2024-01-06T13:45:19;8.20;72.50
20066;DHT22;10193;48.884;9.182;2024-01-06T13:47:45;8.20;72.50
20066;DHT22;10193;48.884;9.182;2024-01-06T13:50:15;8.20;72.50
20066;DHT22;10193;48.884;9.182;2024-01-06T13:52:42;8.30;72.50
20066;DHT22;10193;48.884;9.182;2024-01-06T13:55:09;8.30;72.40
20066;DHT22;10193;48.884;9.182;2024-01-06T13:57:36;8.30;72.20
20066;DHT22;10193;48.884;9.182;2024-01-06T14:00:07;8.30;72.30
20066;DHT22;10193;48.884;9.182;2024-01-06T14:02:41;8.30;72.30
20066;DHT22;10193;48.884;9.182;2024-01-06T14:05:08;8.30;72.10
20066;DHT22;10193;48.884;9.182;2024-01-06T14:07:35;8.20;71.90
20066;DHT22;10193;48.884;9.182;2024-01-06T14:10:04;8.20;72.00
20066;DHT22;10193;48.884;9.182;2024-01-06T14:12:31;8.20;72.10
20066;DHT22;10193;48.884;9.182;2024-01-06T14:14:58;8.20;72.20
20066;DHT22;10193;48.884;9.182;2024-01-06T14:17:26;8.20;72.40
20066;DHT22;10193;48.884;9.182;2024-01-06T14:19:55;8.20;72.50
20066;DHT22;10193;48.884;9.182;2024-01-06T14:22:21;8.10;72.50
20066;DHT22;10193;48.884;9.182;2024-01-06T14:24:48;8.10;73.50
20066;DHT22;10193;48.884;9.182;2024-01-06T14:27:15;8.20;72.80
20066;DHT22;10193;48.884;9.182;2024-01-06T14:29:42;8.20;72.90
20066;DHT22;10193;48.884;9.182;2024-01-06T14:32:08;8.20;73.00
20066;DHT22;10193;48.884;9.182;2024-01-06T14:34:35;8.20;72.90
20066;DHT22;10193;48.884;9.182;2024-01-06T14:37:03;8.20;72.80
20066;DHT22;10193;48.884;9.182;2024-01-06T14:39:30;8.20;72.80
20066;DHT22;10193;48.884;9.182;2024-01-06T14:41:57;8.30;72.80
20066;DHT22;10193;48.884;9.182;2024-01-06T14:44:23;8.30;72.70
20066;DHT22;10193;48.884;9.182;2024-01-06T14:46:52;8.30;72.60
20066;DHT22;10193;48.884;9.182;2024-01-06T14:49:19;8.30;72.70
20066;DHT22;10193;48.884;9.182;2024-01-06T14:51:46;8.30;72.70
20066;DHT22;10193;48.884;9.182;2024-01-06T14:54:14;8.20;72.50
20066;DHT22;10193;48.884;9.182;2024-01-06T14:56:40;8.20;73.20
20066;DHT22;10193;48.884;9.182;2024-01-06T14:59:07;8.20;72.40
20066;DHT22;10193;48.884;9.182;2024-01-06T15:01:34;8.20;72.50
20066;DHT22;10193;48.884;9.182;2024-01-06T15:04:00;8.20;72.70
20066;DHT22;10193;48.884;9.182;2024-01-06T15:06:27;8.20;72.70
20066;DHT22;10193;48.884;9.182;2024-01-06T15:08:53;8.20;72.80
20066;DHT22;10193;48.884;9.182;2024-01-06T15:11:21;8.20;72.70
20066;DHT22;10193;48.884;9.182;2024-01-06T15:13:48;8.20;72.70
20066;DHT22;10193;48.884;9.182;2024-01-06T15:16:14;8.20;72.80
20066;DHT22;10193;48.884;9.182;2024-01-06T15:18:41;8.20;72.80
20066;DHT22;10193;48.884;9.182;2024-01-06T15:21:07;8.20;72.80
20066;DHT22;10193;48.884;9.182;2024-01-06T15:23:34;8.20;72.80
20066;DHT22;10193;48.884;9.182;2024-01-06T15:26:01;8.20;73.00
20066;DHT22;10193;48.884;9.182;2024-01-06T15:28:30;8.20;73.00
20066;DHT22;10193;48.884;9.182;2024-01-06T15:30:57;8.20;73.00
20066;DHT22;10193;48.884;9.182;2024-01-06T15:33:25;8.20;73.00
20066;DHT22;10193;48.884;9.182;2024-01-06T15:35:52;8.20;72.90
20066;DHT22;10193;48.884;9.182;2024-01-06T15:38:19;8.20;72.90
20066;DHT22;10193;48.884;9.182;2024-01-06T15:40:46;8.20;73.00
20066;DHT22;10193;48.884;9.182;2024-01-06T15:43:13;8.20;72.80
20066;DHT22;10193;48.884;9.182;2024-01-06T15:45:41;8.20;72.70